sensor_id;sensor_type;location;lat;lon;timestamp;pressure;altitude;pressure_sealevel;temperature;humidity
62072;BME280;48031;48.542;13.232;2023-04-07T00:02:24;97360.16;;;14.06;28.01
62072;BME280;48031;48.542;13.232;2023-04-07T00:06:27;97364.56;;;13.56;29.54
62072;BME280;48031;48.542;13.232;2023-04-07T00:10:29;97371.38;;;13.84;29.27
62072;BME280;48031;48.542;13.232;2023-04-07T00:14:31;97356.91;;;13.89;28.78
62072;BME280;48031;48.542;13.232;2023-04-07T00:18:33;97353.09;;;13.90;28.27
62072;BME280;48031;48.542;13.232;2023-04-07T00:22:35;97346.81;;;13.94;28.27
62072;BME280;48031;48.542;13.232;2023-04-07T00:26:36;97345.47;;;13.87;28.68
62072;BME280;48031;48.542;13.232;2023-04-07T00:30:38;97347.31;;;13.15;30.20
62072;BME280;48031;48.542;13.232;2023-04-07T00:34:40;97346.00;;;12.56;31.58
62072;BME280;48031;48.542;13.232;2023-04-07T00:38:42;97342.72;;;13.26;30.52
62072;BME280;48031;48.542;13.232;2023-04-07T00:42:44;97341.34;;;13.33;30.40
62072;BME280;48031;48.542;13.232;2023-04-07T00:46:46;97340.81;;;13.42;30.11
62072;BME280;48031;48.542;13.232;2023-04-07T00:50:48;97335.09;;;13.68;29.73
62072;BME280;48031;48.542;13.232;2023-04-07T00:54:51;97343.38;;;12.76;30.71
62072;BME280;48031;48.542;13.232;2023-04-07T00:58:54;97329.00;;;13.06;29.70
62072;BME280;48031;48.542;13.232;2023-04-07T01:03:08;97324.47;;;13.52;30.26
62072;BME280;48031;48.542;13.232;2023-04-07T01:07:34;97313.47;;;14.12;28.61
62072;BME280;48031;48.542;13.232;2023-04-07T01:12:11;97313.53;;;13.87;28.77
62072;BME280;48031;48.542;13.232;2023-04-07T01:16:16;97311.94;;;13.41;30.01
62072;BME280;48031;48.542;13.232;2023-04-07T01:20:26;97296.94;;;13.48;29.56
62072;BME280;48031;48.542;13.232;2023-04-07T01:25:05;97304.56;;;13.56;29.80
62072;BME280;48031;48.542;13.232;2023-04-07T01:29:33;97316.53;;;13.15;30.59
62072;BME280;48031;48.542;13.232;2023-04-07T01:33:38;97323.97;;;12.52;31.56
62072;BME280;48031;48.542;13.232;2023-04-07T01:37:45;97322.53;;;12.39;32.11
62072;BME280;48031;48.542;13.232;2023-04-07T01:41:50;97310.97;;;12.74;31.38
62072;BME280;48031;48.542;13.232;2023-04-07T01:45:54;97314.75;;;12.68;31.74
62072;BME280;48031;48.542;13.232;2023-04-07T01:50:00;97315.81;;;12.57;31.24
62072;BME280;48031;48.542;13.232;2023-04-07T01:54:05;97314.66;;;11.91;32.82
62072;BME280;48031;48.542;13.232;2023-04-07T01:58:08;97311.78;;;12.70;30.58
62072;BME280;48031;48.542;13.232;2023-04-07T02:02:13;97302.56;;;12.86;30.54
62072;BME280;48031;48.542;13.232;2023-04-07T02:06:24;97306.84;;;12.62;31.57
62072;BME280;48031;48.542;13.232;2023-04-07T02:10:28;97304.09;;;12.52;31.15
62072;BME280;48031;48.542;13.232;2023-04-07T02:14:34;97300.91;;;12.80;31.11
62072;BME280;48031;48.542;13.232;2023-04-07T02:18:42;97299.25;;;12.79;31.43
62072;BME280;48031;48.542;13.232;2023-04-07T02:22:47;97297.38;;;12.79;30.31
62072;BME280;48031;48.542;13.232;2023-04-07T02:26:49;97296.00;;;12.82;30.59
62072;BME280;48031;48.542;13.232;2023-04-07T02:30:51;97302.56;;;12.19;31.77
62072;BME280;48031;48.542;13.232;2023-04-07T02:34:53;97302.44;;;12.56;31.31
62072;BME280;48031;48.542;13.232;2023-04-07T02:38:55;97301.66;;;12.60;30.79
62072;BME280;48031;48.542;13.232;2023-04-07T02:42:57;97295.13;;;12.61;31.64
62072;BME280;48031;48.542;13.232;2023-04-07T02:46:59;97295.34;;;12.44;31.38
62072;BME280;48031;48.542;13.232;2023-04-07T02:51:01;97300.19;;;12.32;31.62
62072;BME280;48031;48.542;13.232;2023-04-07T02:55:03;97290.69;;;11.88;32.13
62072;BME280;48031;48.542;13.232;2023-04-07T02:59:05;97292.53;;;12.24;31.50
62072;BME280;48031;48.542;13.232;2023-04-07T03:03:13;97294.59;;;12.02;31.96
62072;BME280;48031;48.542;13.232;2023-04-07T03:07:21;97281.47;;;11.89;32.04
62072;BME280;48031;48.542;13.232;2023-04-07T03:11:25;97271.16;;;11.91;31.92
62072;BME280;48031;48.542;13.232;2023-04-07T03:15:30;97279.31;;;11.91;32.05
62072;BME280;48031;48.542;13.232;2023-04-07T03:19:32;97275.22;;;11.93;31.68
62072;BME280;48031;48.542;13.232;2023-04-07T03:23:34;97273.03;;;11.90;32.30
62072;BME280;48031;48.542;13.232;2023-04-07T03:27:36;97273.72;;;12.13;31.34
62072;BME280;48031;48.542;13.232;2023-04-07T03:31:40;97270.47;;;12.21;30.96
62072;BME280;48031;48.542;13.232;2023-04-07T03:35:43;97270.09;;;11.97;31.12
62072;BME280;48031;48.542;13.232;2023-04-07T03:39:46;97259.53;;;12.11;31.34
62072;BME280;48031;48.542;13.232;2023-04-07T03:44:04;97259.63;;;11.74;32.30
62072;BME280;48031;48.542;13.232;2023-04-07T03:48:09;97261.84;;;11.82;32.47
62072;BME280;48031;48.542;13.232;2023-04-07T03:52:22;97268.59;;;11.05;33.65
62072;BME280;48031;48.542;13.232;2023-04-07T03:56:28;97258.34;;;11.49;33.09
62072;BME280;48031;48.542;13.232;2023-04-07T04:00:32;97261.44;;;11.63;32.00
62072;BME280;48031;48.542;13.232;2023-04-07T04:04:40;97260.03;;;11.60;31.81
62072;BME280;48031;48.542;13.232;2023-04-07T04:08:44;97260.03;;;11.60;32.58
62072;BME280;48031;48.542;13.232;2023-04-07T04:12:48;97254.38;;;11.67;31.74
62072;BME280;48031;48.542;13.232;2023-04-07T04:16:53;97267.59;;;11.16;33.04
62072;BME280;48031;48.542;13.232;2023-04-07T04:21:18;97279.50;;;11.10;33.69
62072;BME280;48031;48.542;13.232;2023-04-07T04:25:20;97284.63;;;11.07;34.08
62072;BME280;48031;48.542;13.232;2023-04-07T04:29:26;97258.06;;;11.46;32.92
62072;BME280;48031;48.542;13.232;2023-04-07T04:33:29;97278.94;;;10.81;33.71
62072;BME280;48031;48.542;13.232;2023-04-07T04:37:33;97271.81;;;11.34;33.18
62072;BME280;48031;48.542;13.232;2023-04-07T04:41:38;97281.34;;;11.05;32.82
62072;BME280;48031;48.542;13.232;2023-04-07T04:45:42;97266.41;;;11.39;33.08
62072;BME280;48031;48.542;13.232;2023-04-07T04:49:47;97266.53;;;11.54;32.84
62072;BME280;48031;48.542;13.232;2023-04-07T04:53:50;97270.00;;;11.45;31.88
62072;BME280;48031;48.542;13.232;2023-04-07T04:57:54;97259.91;;;11.40;32.03
62072;BME280;48031;48.542;13.232;2023-04-07T05:02:06;97274.38;;;10.60;33.82
62072;BME280;48031;48.542;13.232;2023-04-07T05:06:09;97261.06;;;11.49;32.74
62072;BME280;48031;48.542;13.232;2023-04-07T05:10:11;97252.88;;;11.44;32.21
62072;BME280;48031;48.542;13.232;2023-04-07T05:14:20;97244.75;;;11.12;33.26
62072;BME280;48031;48.542;13.232;2023-04-07T05:18:28;97249.13;;;11.92;32.03
62072;BME280;48031;48.542;13.232;2023-04-07T05:22:31;97249.94;;;11.14;33.38
62072;BME280;48031;48.542;13.232;2023-04-07T05:26:33;97247.09;;;10.72;34.66
62072;BME280;48031;48.542;13.232;2023-04-07T05:30:38;97243.22;;;11.63;32.85
62072;BME280;48031;48.542;13.232;2023-04-07T05:34:40;97240.81;;;11.72;32.23
62072;BME280;48031;48.542;13.232;2023-04-07T05:38:43;97241.91;;;11.29;33.40
62072;BME280;48031;48.542;13.232;2023-04-07T05:42:49;97245.09;;;12.05;32.05
62072;BME280;48031;48.542;13.232;2023-04-07T05:46:51;97243.00;;;12.27;32.18
62072;BME280;48031;48.542;13.232;2023-04-07T05:50:55;97249.75;;;11.62;33.58
62072;BME280;48031;48.542;13.232;2023-04-07T05:54:58;97249.91;;;11.88;33.54
62072;BME280;48031;48.542;13.232;2023-04-07T05:59:03;97246.34;;;11.82;33.53
62072;BME280;48031;48.542;13.232;2023-04-07T06:03:06;97246.13;;;11.94;33.67
62072;BME280;48031;48.542;13.232;2023-04-07T06:07:18;97237.78;;;12.11;34.08
62072;BME280;48031;48.542;13.232;2023-04-07T06:11:20;97253.44;;;12.45;33.71
62072;BME280;48031;48.542;13.232;2023-04-07T06:15:21;97257.44;;;12.33;33.71
62072;BME280;48031;48.542;13.232;2023-04-07T06:19:23;97255.06;;;12.52;33.30
62072;BME280;48031;48.542;13.232;2023-04-07T06:23:25;97255.13;;;12.72;33.82
62072;BME280;48031;48.542;13.232;2023-04-07T06:27:27;97247.78;;;12.87;32.56
62072;BME280;48031;48.542;13.232;2023-04-07T06:31:30;97249.16;;;12.85;32.66
62072;BME280;48031;48.542;13.232;2023-04-07T06:35:32;97247.03;;;13.17;32.27
62072;BME280;48031;48.542;13.232;2023-04-07T06:39:33;97256.81;;;13.08;32.38
62072;BME280;48031;48.542;13.232;2023-04-07T06:43:36;97251.09;;;13.55;32.00
62072;BME280;48031;48.542;13.232;2023-04-07T06:47:41;97249.47;;;13.59;32.36
62072;BME280;48031;48.542;13.232;2023-04-07T06:51:43;97249.19;;;13.61;32.40
62072;BME280;48031;48.542;13.232;2023-04-07T06:55:44;97254.41;;;13.42;32.60
62072;BME280;48031;48.542;13.232;2023-04-07T06:59:46;97257.03;;;12.76;34.79
62072;BME280;48031;48.542;13.232;2023-04-07T07:03:48;97254.63;;;13.71;32.96
62072;BME280;48031;48.542;13.232;2023-04-07T07:07:51;97251.88;;;13.86;33.25
62072;BME280;48031;48.542;13.232;2023-04-07T07:11:53;97254.31;;;13.83;33.45
62072;BME280;48031;48.542;13.232;2023-04-07T07:15:55;97257.34;;;13.81;33.54
62072;BME280;48031;48.542;13.232;2023-04-07T07:19:56;97265.63;;;14.45;32.85
62072;BME280;48031;48.542;13.232;2023-04-07T07:23:58;97245.59;;;14.60;33.13
62072;BME280;48031;48.542;13.232;2023-04-07T07:28:00;97255.41;;;14.66;33.03
62072;BME280;48031;48.542;13.232;2023-04-07T07:32:02;97255.81;;;14.39;33.51
62072;BME280;48031;48.542;13.232;2023-04-07T07:36:04;97257.84;;;14.03;34.33
62072;BME280;48031;48.542;13.232;2023-04-07T07:40:06;97263.03;;;14.69;33.50
62072;BME280;48031;48.542;13.232;2023-04-07T07:44:08;97257.66;;;14.59;34.07
62072;BME280;48031;48.542;13.232;2023-04-07T07:48:10;97251.38;;;14.59;34.20
62072;BME280;48031;48.542;13.232;2023-04-07T07:52:12;97253.63;;;14.90;33.61
62072;BME280;48031;48.542;13.232;2023-04-07T07:56:13;97255.78;;;14.98;33.68
62072;BME280;48031;48.542;13.232;2023-04-07T08:00:15;97251.56;;;15.45;30.89
62072;BME280;48031;48.542;13.232;2023-04-07T08:04:17;97244.03;;;15.66;31.04
62072;BME280;48031;48.542;13.232;2023-04-07T08:08:20;97245.22;;;15.84;30.06
62072;BME280;48031;48.542;13.232;2023-04-07T08:12:21;97242.91;;;15.67;30.27
62072;BME280;48031;48.542;13.232;2023-04-07T08:16:23;97243.84;;;15.57;30.91
62072;BME280;48031;48.542;13.232;2023-04-07T08:20:27;97242.34;;;15.99;30.20
62072;BME280;48031;48.542;13.232;2023-04-07T08:24:29;97243.44;;;15.98;31.22
62072;BME280;48031;48.542;13.232;2023-04-07T08:28:31;97247.84;;;16.41;30.05
62072;BME280;48031;48.542;13.232;2023-04-07T08:32:38;97251.00;;;16.72;30.06
62072;BME280;48031;48.542;13.232;2023-04-07T08:36:41;97244.34;;;16.59;30.53
62072;BME280;48031;48.542;13.232;2023-04-07T08:40:44;97246.38;;;17.10;29.99
62072;BME280;48031;48.542;13.232;2023-04-07T08:44:47;97244.28;;;17.21;30.88
62072;BME280;48031;48.542;13.232;2023-04-07T08:48:51;97236.81;;;16.89;30.46
62072;BME280;48031;48.542;13.232;2023-04-07T08:52:59;97233.31;;;17.72;30.10
62072;BME280;48031;48.542;13.232;2023-04-07T08:57:06;97235.44;;;17.42;30.72
62072;BME280;48031;48.542;13.232;2023-04-07T09:01:09;97235.41;;;17.10;31.74
62072;BME280;48031;48.542;13.232;2023-04-07T09:05:12;97227.09;;;17.80;31.09
62072;BME280;48031;48.542;13.232;2023-04-07T09:09:17;97214.63;;;18.15;30.03
62072;BME280;48031;48.542;13.232;2023-04-07T09:13:19;97211.06;;;18.28;32.37
62072;BME280;48031;48.542;13.232;2023-04-07T09:17:21;97210.03;;;18.38;30.05
62072;BME280;48031;48.542;13.232;2023-04-07T09:21:25;97208.59;;;18.54;30.97
62072;BME280;48031;48.542;13.232;2023-04-07T09:25:30;97216.53;;;18.42;29.70
62072;BME280;48031;48.542;13.232;2023-04-07T09:29:34;97218.22;;;18.92;28.79
62072;BME280;48031;48.542;13.232;2023-04-07T09:33:36;97210.09;;;19.76;29.15
62072;BME280;48031;48.542;13.232;2023-04-07T09:37:38;97200.34;;;20.41;27.96
62072;BME280;48031;48.542;13.232;2023-04-07T09:41:40;97197.28;;;20.42;27.65
62072;BME280;48031;48.542;13.232;2023-04-07T09:45:42;97188.34;;;21.74;26.68
62072;BME280;48031;48.542;13.232;2023-04-07T09:49:52;97171.31;;;22.19;26.92
62072;BME280;48031;48.542;13.232;2023-04-07T09:53:54;97168.19;;;21.82;25.76
62072;BME280;48031;48.542;13.232;2023-04-07T09:57:56;97164.03;;;22.14;24.38
62072;BME280;48031;48.542;13.232;2023-04-07T10:01:58;97159.00;;;22.46;23.84
62072;BME280;48031;48.542;13.232;2023-04-07T10:06:01;97161.16;;;21.93;24.42
62072;BME280;48031;48.542;13.232;2023-04-07T10:10:03;97156.66;;;23.18;22.19
62072;BME280;48031;48.542;13.232;2023-04-07T10:14:06;97153.88;;;23.18;22.53
62072;BME280;48031;48.542;13.232;2023-04-07T10:18:08;97149.34;;;24.49;22.74
62072;BME280;48031;48.542;13.232;2023-04-07T10:22:11;97142.75;;;24.41;22.53
62072;BME280;48031;48.542;13.232;2023-04-07T10:26:15;97137.06;;;25.14;21.62
62072;BME280;48031;48.542;13.232;2023-04-07T10:30:24;97123.06;;;25.98;21.92
62072;BME280;48031;48.542;13.232;2023-04-07T10:43:09;97122.69;;;26.97;18.65
62072;BME280;48031;48.542;13.232;2023-04-07T10:47:15;97120.06;;;26.69;21.32
62072;BME280;48031;48.542;13.232;2023-04-07T10:51:17;97128.91;;;26.08;22.37
62072;BME280;48031;48.542;13.232;2023-04-07T10:55:31;97122.69;;;28.20;18.50
62072;BME280;48031;48.542;13.232;2023-04-07T10:59:33;97123.81;;;27.73;19.87
62072;BME280;48031;48.542;13.232;2023-04-07T11:03:52;97117.88;;;28.69;17.25
62072;BME280;48031;48.542;13.232;2023-04-07T11:07:54;97118.03;;;29.10;15.35
62072;BME280;48031;48.542;13.232;2023-04-07T11:11:56;97116.13;;;29.14;14.52
62072;BME280;48031;48.542;13.232;2023-04-07T11:15:58;97102.34;;;30.02;14.21
62072;BME280;48031;48.542;13.232;2023-04-07T11:19:59;97106.56;;;30.29;13.59
62072;BME280;48031;48.542;13.232;2023-04-07T11:24:02;97105.84;;;30.97;12.93
62072;BME280;48031;48.542;13.232;2023-04-07T11:28:04;97094.53;;;30.80;12.37
62072;BME280;48031;48.542;13.232;2023-04-07T11:32:06;97085.00;;;30.95;12.08
62072;BME280;48031;48.542;13.232;2023-04-07T11:36:08;97085.75;;;31.82;12.07
62072;BME280;48031;48.542;13.232;2023-04-07T11:40:10;97084.97;;;32.38;11.10
62072;BME280;48031;48.542;13.232;2023-04-07T11:44:12;97082.56;;;32.08;12.87
62072;BME280;48031;48.542;13.232;2023-04-07T11:48:31;97076.13;;;32.75;10.97
62072;BME280;48031;48.542;13.232;2023-04-07T11:52:44;97079.34;;;33.68;12.36
62072;BME280;48031;48.542;13.232;2023-04-07T11:56:46;97081.84;;;34.17;11.40
62072;BME280;48031;48.542;13.232;2023-04-07T12:00:53;97078.28;;;34.10;12.43
62072;BME280;48031;48.542;13.232;2023-04-07T12:04:55;97075.59;;;33.12;13.46
62072;BME280;48031;48.542;13.232;2023-04-07T12:08:58;97066.47;;;34.74;10.41
62072;BME280;48031;48.542;13.232;2023-04-07T12:12:59;97073.47;;;34.07;12.78
62072;BME280;48031;48.542;13.232;2023-04-07T12:17:03;97069.75;;;33.58;11.28
62072;BME280;48031;48.542;13.232;2023-04-07T12:21:05;97067.69;;;35.07;9.90
62072;BME280;48031;48.542;13.232;2023-04-07T12:25:07;97055.59;;;35.43;11.15
62072;BME280;48031;48.542;13.232;2023-04-07T12:29:09;97058.81;;;35.08;11.19
62072;BME280;48031;48.542;13.232;2023-04-07T12:33:11;97061.22;;;32.92;11.81
62072;BME280;48031;48.542;13.232;2023-04-07T12:37:13;97052.41;;;33.67;11.21
62072;BME280;48031;48.542;13.232;2023-04-07T12:41:14;97047.75;;;35.24;9.08
62072;BME280;48031;48.542;13.232;2023-04-07T12:45:16;97044.81;;;35.62;10.89
62072;BME280;48031;48.542;13.232;2023-04-07T12:49:18;97049.31;;;37.02;9.05
62072;BME280;48031;48.542;13.232;2023-04-07T12:53:19;97039.69;;;39.30;7.63
62072;BME280;48031;48.542;13.232;2023-04-07T12:57:21;97041.59;;;39.62;8.12
62072;BME280;48031;48.542;13.232;2023-04-07T13:01:23;97034.72;;;40.61;8.02
62072;BME280;48031;48.542;13.232;2023-04-07T13:05:25;97043.34;;;39.98;8.06
62072;BME280;48031;48.542;13.232;2023-04-07T13:09:27;97042.22;;;39.95;6.72
62072;BME280;48031;48.542;13.232;2023-04-07T13:13:30;97035.59;;;35.58;8.01
62072;BME280;48031;48.542;13.232;2023-04-07T13:17:32;97036.91;;;34.00;9.99
62072;BME280;48031;48.542;13.232;2023-04-07T13:21:36;97038.22;;;33.85;10.35
62072;BME280;48031;48.542;13.232;2023-04-07T13:25:41;97029.97;;;32.05;10.40
62072;BME280;48031;48.542;13.232;2023-04-07T13:29:43;97031.88;;;31.30;11.09
62072;BME280;48031;48.542;13.232;2023-04-07T13:33:44;97027.38;;;29.85;12.25
62072;BME280;48031;48.542;13.232;2023-04-07T13:37:46;97035.31;;;29.39;12.21
62072;BME280;48031;48.542;13.232;2023-04-07T13:41:48;97023.91;;;29.98;12.42
62072;BME280;48031;48.542;13.232;2023-04-07T13:45:50;97017.97;;;30.62;12.08
62072;BME280;48031;48.542;13.232;2023-04-07T13:49:52;97016.66;;;31.35;11.88
62072;BME280;48031;48.542;13.232;2023-04-07T13:53:54;97015.53;;;32.10;11.10
62072;BME280;48031;48.542;13.232;2023-04-07T13:57:55;97009.13;;;32.06;12.81
62072;BME280;48031;48.542;13.232;2023-04-07T14:01:57;97003.03;;;31.33;12.41
62072;BME280;48031;48.542;13.232;2023-04-07T14:05:59;97008.88;;;30.86;13.30
62072;BME280;48031;48.542;13.232;2023-04-07T14:10:02;97002.63;;;29.87;13.09
62072;BME280;48031;48.542;13.232;2023-04-07T14:14:03;97005.69;;;30.91;13.18
62072;BME280;48031;48.542;13.232;2023-04-07T14:18:07;97003.47;;;30.49;14.54
62072;BME280;48031;48.542;13.232;2023-04-07T14:22:09;97000.75;;;29.57;14.34
62072;BME280;48031;48.542;13.232;2023-04-07T14:26:11;97000.84;;;29.64;12.52
62072;BME280;48031;48.542;13.232;2023-04-07T14:30:13;96998.75;;;30.64;12.31
62072;BME280;48031;48.542;13.232;2023-04-07T14:34:15;96996.19;;;29.39;12.58
62072;BME280;48031;48.542;13.232;2023-04-07T14:38:17;96999.38;;;29.04;13.31
62072;BME280;48031;48.542;13.232;2023-04-07T14:42:19;96989.75;;;29.34;12.71
62072;BME280;48031;48.542;13.232;2023-04-07T14:46:22;96994.75;;;29.18;13.07
62072;BME280;48031;48.542;13.232;2023-04-07T14:50:24;96996.34;;;29.56;13.77
62072;BME280;48031;48.542;13.232;2023-04-07T14:54:26;96995.13;;;29.17;12.49
62072;BME280;48031;48.542;13.232;2023-04-07T14:58:28;96998.72;;;28.80;13.76
62072;BME280;48031;48.542;13.232;2023-04-07T15:02:30;97001.06;;;28.78;12.88
62072;BME280;48031;48.542;13.232;2023-04-07T15:06:33;96993.97;;;29.21;12.62
62072;BME280;48031;48.542;13.232;2023-04-07T15:10:36;96994.28;;;28.20;13.62
62072;BME280;48031;48.542;13.232;2023-04-07T15:14:39;96988.84;;;27.81;13.27
62072;BME280;48031;48.542;13.232;2023-04-07T15:18:43;96992.22;;;27.45;13.95
62072;BME280;48031;48.542;13.232;2023-04-07T15:22:45;96991.56;;;27.74;14.24
62072;BME280;48031;48.542;13.232;2023-04-07T15:26:48;96992.22;;;27.45;14.79
62072;BME280;48031;48.542;13.232;2023-04-07T15:30:50;96986.16;;;27.39;14.25
62072;BME280;48031;48.542;13.232;2023-04-07T15:34:51;96992.81;;;27.12;14.18
62072;BME280;48031;48.542;13.232;2023-04-07T15:38:53;96990.09;;;27.57;14.48
62072;BME280;48031;48.542;13.232;2023-04-07T15:42:55;96993.00;;;27.22;14.93
62072;BME280;48031;48.542;13.232;2023-04-07T15:46:57;96996.25;;;27.24;15.21
62072;BME280;48031;48.542;13.232;2023-04-07T15:50:58;97000.03;;;27.81;15.63
62072;BME280;48031;48.542;13.232;2023-04-07T15:55:00;97000.88;;;28.64;15.20
62072;BME280;48031;48.542;13.232;2023-04-07T15:59:03;96996.75;;;28.25;15.35
62072;BME280;48031;48.542;13.232;2023-04-07T16:03:05;97007.25;;;28.35;14.67
62072;BME280;48031;48.542;13.232;2023-04-07T16:07:07;97002.59;;;27.67;15.26
62072;BME280;48031;48.542;13.232;2023-04-07T16:11:08;97011.09;;;28.00;14.31
62072;BME280;48031;48.542;13.232;2023-04-07T16:15:11;97003.59;;;27.13;14.59
62072;BME280;48031;48.542;13.232;2023-04-07T16:19:13;97007.19;;;26.21;15.11
62072;BME280;48031;48.542;13.232;2023-04-07T16:23:15;97019.03;;;26.53;15.26
62072;BME280;48031;48.542;13.232;2023-04-07T16:27:16;97011.81;;;25.98;15.14
62072;BME280;48031;48.542;13.232;2023-04-07T16:31:18;97017.13;;;26.38;15.56
62072;BME280;48031;48.542;13.232;2023-04-07T16:35:20;97018.69;;;26.55;15.63
62072;BME280;48031;48.542;13.232;2023-04-07T16:39:22;97022.69;;;26.38;16.16
62072;BME280;48031;48.542;13.232;2023-04-07T16:43:26;97022.00;;;26.25;16.13
62072;BME280;48031;48.542;13.232;2023-04-07T16:47:29;97026.94;;;26.16;15.83
62072;BME280;48031;48.542;13.232;2023-04-07T16:51:31;97022.50;;;25.80;17.30
62072;BME280;48031;48.542;13.232;2023-04-07T16:55:37;97027.34;;;25.83;17.78
62072;BME280;48031;48.542;13.232;2023-04-07T16:59:39;97031.03;;;25.72;18.08
62072;BME280;48031;48.542;13.232;2023-04-07T17:03:41;97034.66;;;25.13;18.21
62072;BME280;48031;48.542;13.232;2023-04-07T17:07:43;97048.50;;;24.57;19.26
62072;BME280;48031;48.542;13.232;2023-04-07T17:11:44;97052.34;;;24.40;19.51
62072;BME280;48031;48.542;13.232;2023-04-07T17:15:46;97059.28;;;23.98;19.91
62072;BME280;48031;48.542;13.232;2023-04-07T17:19:48;97056.94;;;21.94;21.45
62072;BME280;48031;48.542;13.232;2023-04-07T17:23:49;97060.00;;;24.07;20.07
62072;BME280;48031;48.542;13.232;2023-04-07T17:27:52;97057.66;;;23.97;19.93
62072;BME280;48031;48.542;13.232;2023-04-07T17:31:55;97075.16;;;20.50;24.58
62072;BME280;48031;48.542;13.232;2023-04-07T17:36:00;97071.56;;;22.74;22.07
62072;BME280;48031;48.542;13.232;2023-04-07T17:40:02;97071.06;;;22.93;22.31
62072;BME280;48031;48.542;13.232;2023-04-07T17:44:04;97079.41;;;22.72;22.00
62072;BME280;48031;48.542;13.232;2023-04-07T17:48:06;97076.25;;;22.53;23.09
62072;BME280;48031;48.542;13.232;2023-04-07T17:52:11;97083.13;;;22.26;22.79
62072;BME280;48031;48.542;13.232;2023-04-07T17:56:14;97078.50;;;22.09;24.13
62072;BME280;48031;48.542;13.232;2023-04-07T18:00:16;97088.81;;;23.25;21.72
62072;BME280;48031;48.542;13.232;2023-04-07T18:04:18;97090.19;;;23.18;21.82
62072;BME280;48031;48.542;13.232;2023-04-07T18:08:19;97104.16;;;22.89;22.94
62072;BME280;48031;48.542;13.232;2023-04-07T18:12:21;97103.63;;;22.75;22.21
62072;BME280;48031;48.542;13.232;2023-04-07T18:16:23;97102.44;;;22.55;22.61
62072;BME280;48031;48.542;13.232;2023-04-07T18:20:25;97112.28;;;22.73;22.30
62072;BME280;48031;48.542;13.232;2023-04-07T18:24:28;97114.78;;;22.58;22.51
62072;BME280;48031;48.542;13.232;2023-04-07T18:28:29;97115.97;;;22.27;22.94
62072;BME280;48031;48.542;13.232;2023-04-07T18:32:31;97125.50;;;22.38;22.19
62072;BME280;48031;48.542;13.232;2023-04-07T18:36:33;97123.25;;;22.03;23.18
62072;BME280;48031;48.542;13.232;2023-04-07T18:40:35;97133.81;;;22.09;23.22
62072;BME280;48031;48.542;13.232;2023-04-07T18:44:37;97141.44;;;21.57;23.82
62072;BME280;48031;48.542;13.232;2023-04-07T18:48:38;97139.53;;;21.40;24.28
62072;BME280;48031;48.542;13.232;2023-04-07T18:52:41;97139.25;;;21.33;23.91
62072;BME280;48031;48.542;13.232;2023-04-07T18:56:43;97148.31;;;20.73;24.47
62072;BME280;48031;48.542;13.232;2023-04-07T19:00:46;97148.84;;;20.84;24.17
62072;BME280;48031;48.542;13.232;2023-04-07T19:04:50;97146.38;;;21.43;23.94
62072;BME280;48031;48.542;13.232;2023-04-07T19:08:51;97150.13;;;20.78;24.74
62072;BME280;48031;48.542;13.232;2023-04-07T19:12:53;97155.50;;;20.83;24.67
62072;BME280;48031;48.542;13.232;2023-04-07T19:16:55;97160.66;;;21.02;24.60
62072;BME280;48031;48.542;13.232;2023-04-07T19:20:57;97159.06;;;20.84;24.57
62072;BME280;48031;48.542;13.232;2023-04-07T19:24:58;97161.03;;;20.26;25.94
62072;BME280;48031;48.542;13.232;2023-04-07T19:29:00;97166.66;;;20.04;25.78
62072;BME280;48031;48.542;13.232;2023-04-07T19:33:03;97171.34;;;20.43;25.47
62072;BME280;48031;48.542;13.232;2023-04-07T19:37:05;97172.75;;;20.32;25.36
62072;BME280;48031;48.542;13.232;2023-04-07T19:41:07;97174.72;;;20.31;25.58
62072;BME280;48031;48.542;13.232;2023-04-07T19:45:09;97171.63;;;20.33;25.15
62072;BME280;48031;48.542;13.232;2023-04-07T19:49:11;97184.53;;;20.24;26.05
62072;BME280;48031;48.542;13.232;2023-04-07T19:53:13;97170.38;;;19.69;26.74
62072;BME280;48031;48.542;13.232;2023-04-07T19:57:16;97177.69;;;19.73;25.71
62072;BME280;48031;48.542;13.232;2023-04-07T20:01:18;97178.84;;;19.72;25.82
62072;BME280;48031;48.542;13.232;2023-04-07T20:05:20;97182.28;;;19.86;25.83
62072;BME280;48031;48.542;13.232;2023-04-07T20:09:23;97186.63;;;19.79;26.09
62072;BME280;48031;48.542;13.232;2023-04-07T20:13:27;97191.97;;;19.84;26.03
62072;BME280;48031;48.542;13.232;2023-04-07T20:17:30;97188.91;;;19.32;26.96
62072;BME280;48031;48.542;13.232;2023-04-07T20:21:34;97188.84;;;19.24;27.45
62072;BME280;48031;48.542;13.232;2023-04-07T20:25:36;97185.25;;;19.01;27.39
62072;BME280;48031;48.542;13.232;2023-04-07T20:29:37;97200.78;;;18.61;28.16
62072;BME280;48031;48.542;13.232;2023-04-07T20:33:39;97198.94;;;18.43;28.90
62072;BME280;48031;48.542;13.232;2023-04-07T20:37:41;97203.31;;;18.44;28.89
62072;BME280;48031;48.542;13.232;2023-04-07T20:41:44;97194.47;;;18.19;29.34
62072;BME280;48031;48.542;13.232;2023-04-07T20:45:46;97208.00;;;18.29;29.78
62072;BME280;48031;48.542;13.232;2023-04-07T20:49:48;97200.13;;;18.50;29.69
62072;BME280;48031;48.542;13.232;2023-04-07T20:53:49;97207.31;;;18.10;29.88
62072;BME280;48031;48.542;13.232;2023-04-07T20:57:51;97207.41;;;18.19;29.96
62072;BME280;48031;48.542;13.232;2023-04-07T21:01:55;97204.59;;;18.74;29.61
62072;BME280;48031;48.542;13.232;2023-04-07T21:05:57;97210.06;;;18.10;31.25
62072;BME280;48031;48.542;13.232;2023-04-07T21:09:59;97209.34;;;18.18;31.05
62072;BME280;48031;48.542;13.232;2023-04-07T21:14:01;97219.00;;;18.02;30.91
62072;BME280;48031;48.542;13.232;2023-04-07T21:18:03;97215.56;;;18.10;31.11
62072;BME280;48031;48.542;13.232;2023-04-07T21:22:05;97212.69;;;18.56;30.29